Time;durP1;ratioP1;P1;durP2;ratioP2;P2;SDS_P1;SDS_P2;PMS_P1;PMS_P2;Temp;Humidity;BMP_temperature;BMP_pressure;BME280_temperature;BME280_humidity;BME280_pressure;Samples;Min_cycle;Max_cycle;Signal;HPM_P1;HPM_P2
2022/08/13 00:01:04;;;;;;;2.40;1.40;;;23.60;39.10;;;;;;4982996;28;20667;-79
2022/08/13 00:03:30;;;;;;;2.38;1.48;;;23.60;38.90;;;;;;4956096;28;20564;-79
2022/08/13 00:05:56;;;;;;;2.45;1.58;;;23.60;38.90;;;;;;4958139;28;20031;-79
2022/08/13 00:08:25;;;;;;;2.15;1.40;;;23.50;39.10;;;;;;4959679;28;20110;-79
2022/08/13 00:10:51;;;;;;;2.75;1.63;;;23.50;39.20;;;;;;4919347;28;20995;-79
2022/08/13 00:13:18;;;;;;;1.87;1.50;;;23.40;39.30;;;;;;4965956;28;20032;-79
2022/08/13 00:15:46;;;;;;;2.05;1.60;;;23.40;39.30;;;;;;4957054;28;20038;-79
2022/08/13 00:18:18;;;;;;;3.03;1.40;;;23.40;39.70;;;;;;4967947;28;20855;-79
2022/08/13 00:20:54;;;;;;;3.28;1.60;;;23.30;40.10;;;;;;4951558;28;21191;-79
2022/08/13 00:23:22;;;;;;;2.10;1.40;;;23.30;40.50;;;;;;4950194;28;20031;-79
2022/08/13 00:25:52;;;;;;;1.77;1.27;;;23.20;39.80;;;;;;4953537;28;20350;-79
2022/08/13 00:28:20;;;;;;;2.75;1.50;;;23.10;40.10;;;;;;4944734;28;20058;-79
2022/08/13 00:30:46;;;;;;;4.10;1.60;;;23.10;40.10;;;;;;4959124;28;20209;-79
2022/08/13 00:33:19;;;;;;;1.95;1.50;;;23.10;40.20;;;;;;4967079;28;20047;-79
2022/08/13 00:35:51;;;;;;;2.28;1.60;;;23.00;40.40;;;;;;4973429;28;20239;-79
2022/08/13 00:38:22;;;;;;;3.03;1.47;;;23.00;41.20;;;;;;4960961;28;20030;-79
2022/08/13 00:40:59;;;;;;;1.65;1.40;;;22.90;40.70;;;;;;4949333;28;20689;-79
2022/08/13 00:43:26;;;;;;;2.97;1.50;;;22.80;41.60;;;;;;4978152;28;20046;-79
2022/08/13 00:45:54;;;;;;;2.92;1.45;;;22.80;40.70;;;;;;4967125;28;20188;-79
2022/08/13 00:51:06;;;;;;;2.13;1.30;;;22.70;40.90;;;;;;4966478;28;20062;-79
2022/08/13 00:53:32;;;;;;;1.98;1.50;;;22.60;40.80;;;;;;4957492;28;20042;-79
2022/08/13 00:55:58;;;;;;;2.42;1.52;;;22.60;41.00;;;;;;4932704;28;20094;-79
2022/08/13 00:58:27;;;;;;;1.88;1.55;;;22.50;41.10;;;;;;4967151;28;20070;-79
2022/08/13 01:00:57;;;;;;;3.10;1.42;;;22.50;41.40;;;;;;4943279;28;20026;-79
2022/08/13 01:03:24;;;;;;;1.93;1.40;;;22.40;41.60;;;;;;4957555;28;20149;-79
2022/08/13 01:05:50;;;;;;;2.75;1.60;;;22.40;41.50;;;;;;4962107;28;20176;-79
2022/08/13 01:08:19;;;;;;;3.38;1.60;;;22.40;41.60;;;;;;4951270;28;20085;-79
2022/08/13 01:10:48;;;;;;;2.50;1.60;;;22.30;41.80;;;;;;4963963;28;20027;-79
2022/08/13 01:13:15;;;;;;;3.03;1.70;;;22.30;41.90;;;;;;4931732;28;20023;-79
2022/08/13 01:15:43;;;;;;;2.77;1.50;;;22.30;41.90;;;;;;4946899;28;20130;-79
2022/08/13 01:18:13;;;;;;;3.22;1.60;;;22.20;42.10;;;;;;4970374;28;20023;-80
2022/08/13 01:20:58;;;;;;;2.50;1.52;;;22.20;42.10;;;;;;4946080;28;20318;-80
2022/08/13 01:23:25;;;;;;;2.10;1.60;;;22.20;43.10;;;;;;4948696;28;20054;-79
2022/08/13 01:25:54;;;;;;;1.73;1.40;;;22.10;42.40;;;;;;4939440;28;20263;-79
2022/08/13 01:28:27;;;;;;;3.10;1.63;;;22.00;42.40;;;;;;4946505;28;20056;-79
2022/08/13 01:30:55;;;;;;;2.85;1.42;;;22.00;42.80;;;;;;4943775;28;20050;-79
2022/08/13 01:33:21;;;;;;;1.80;1.50;;;22.00;42.60;;;;;;4956517;28;20015;-79
2022/08/13 01:35:48;;;;;;;2.45;1.55;;;21.90;42.60;;;;;;4961888;28;20038;-79
2022/08/13 01:38:15;;;;;;;2.63;1.50;;;21.80;42.70;;;;;;4956912;28;20046;-80
2022/08/13 01:40:43;;;;;;;2.10;1.40;;;21.80;42.80;;;;;;4929495;28;20129;-79
2022/08/13 01:43:10;;;;;;;1.85;1.50;;;21.80;43.10;;;;;;4946651;28;20058;-79
2022/08/13 01:45:37;;;;;;;2.50;1.50;;;21.70;43.10;;;;;;4972427;28;20271;-79
2022/08/13 01:50:48;;;;;;;2.63;1.70;;;21.60;43.30;;;;;;4965866;28;20023;-79
2022/08/13 01:53:16;;;;;;;2.00;1.50;;;21.60;43.30;;;;;;4957865;28;20077;-79
2022/08/13 01:55:54;;;;;;;3.35;1.50;;;21.50;43.60;;;;;;4955224;28;20236;-79
2022/08/13 01:58:22;;;;;;;2.25;1.67;;;21.50;44.40;;;;;;4959025;28;20041;-79
2022/08/13 02:00:54;;;;;;;3.45;1.50;;;21.40;43.80;;;;;;4954207;28;20692;-80
2022/08/13 02:03:20;;;;;;;2.60;1.50;;;21.40;44.50;;;;;;4959160;28;20030;-79
2022/08/13 02:05:48;;;;;;;3.22;1.40;;;21.30;43.90;;;;;;4961328;28;20438;-80
2022/08/13 02:08:19;;;;;;;2.25;1.70;;;21.30;44.20;;;;;;4959116;28;20030;-79
2022/08/13 02:10:46;;;;;;;1.92;1.50;;;21.20;44.20;;;;;;4945235;28;20105;-79
2022/08/13 02:13:19;;;;;;;1.60;1.40;;;21.20;44.90;;;;;;4965252;28;20023;-79
2022/08/13 02:15:46;;;;;;;2.03;1.50;;;21.10;45.00;;;;;;4950461;28;20184;-79
2022/08/13 02:18:17;;;;;;;2.03;1.70;;;21.10;44.60;;;;;;4945703;28;20076;-79
2022/08/13 02:20:45;;;;;;;1.92;1.40;;;21.00;44.70;;;;;;4952556;28;20133;-79
2022/08/13 02:23:19;;;;;;;2.53;1.52;;;21.00;44.90;;;;;;4964354;28;20027;-79
2022/08/13 02:25:45;;;;;;;2.80;1.60;;;20.90;45.40;;;;;;4964110;28;20862;-79
2022/08/13 02:28:14;;;;;;;4.03;1.60;;;20.80;44.90;;;;;;4967409;28;20023;-79
2022/08/13 02:30:41;;;;;;;2.05;1.60;;;20.80;45.20;;;;;;4942806;28;20182;-79
2022/08/13 02:33:08;;;;;;;2.45;1.70;;;20.70;45.40;;;;;;4956632;28;20062;-79
2022/08/13 02:35:35;;;;;;;2.55;1.60;;;20.70;45.50;;;;;;4957076;28;21376;-79
2022/08/13 02:38:05;;;;;;;3.88;1.70;;;20.60;45.50;;;;;;4941063;28;20057;-79
2022/08/13 02:43:17;;;;;;;1.90;1.50;;;20.60;45.80;;;;;;4973849;28;20046;-80
2022/08/13 02:45:46;;;;;;;2.03;1.50;;;20.60;45.90;;;;;;4946261;28;24297;-79
2022/08/13 02:48:12;;;;;;;2.28;1.40;;;20.50;46.00;;;;;;4957943;28;20411;-80
2022/08/13 02:50:45;;;;;;;1.77;1.55;;;20.50;46.20;;;;;;4953280;28;20046;-80
2022/08/13 02:53:17;;;;;;;5.07;1.57;;;20.40;46.30;;;;;;4963610;28;20054;-80
2022/08/13 02:55:43;;;;;;;2.58;1.40;;;20.40;46.40;;;;;;4954260;28;20114;-80
2022/08/13 02:58:09;;;;;;;2.50;1.70;;;20.40;46.40;;;;;;4956178;28;20085;-80
2022/08/13 03:00:35;;;;;;;2.10;1.75;;;20.30;46.50;;;;;;4955622;28;20022;-80
2022/08/13 03:03:04;;;;;;;1.93;1.50;;;20.30;46.70;;;;;;4947792;28;20424;-80
2022/08/13 03:05:31;;;;;;;2.38;1.70;;;20.20;47.00;;;;;;4966845;28;20511;-80
2022/08/13 03:07:57;;;;;;;1.77;1.50;;;20.20;46.90;;;;;;4943918;28;20755;-79
2022/08/13 03:10:25;;;;;;;2.10;1.50;;;20.10;47.00;;;;;;4958039;28;20255;-79
2022/08/13 03:12:58;;;;;;;2.83;1.63;;;20.10;47.30;;;;;;4960766;28;20023;-80
2022/08/13 03:15:26;;;;;;;3.00;1.50;;;20.10;47.80;;;;;;4970791;28;20260;-80
2022/08/13 03:17:52;;;;;;;3.13;1.73;;;20.00;47.50;;;;;;4936022;28;20023;-80
2022/08/13 03:20:18;;;;;;;2.20;1.60;;;20.00;47.40;;;;;;4948968;28;20517;-80
2022/08/13 03:22:57;;;;;;;2.17;1.55;;;20.00;47.50;;;;;;4971035;28;20023;-80
2022/08/13 03:25:26;;;;;;;3.00;1.53;;;19.90;48.90;;;;;;4974586;28;20383;-80
2022/08/13 03:27:52;;;;;;;2.42;1.60;;;19.90;47.90;;;;;;4961454;28;20046;-80
2022/08/13 03:30:21;;;;;;;2.53;1.48;;;19.90;47.80;;;;;;4956758;28;20058;-79
2022/08/13 03:32:47;;;;;;;1.92;1.35;;;19.80;47.80;;;;;;4953795;28;20042;-80
2022/08/13 03:35:23;;;;;;;2.10;1.58;;;19.80;48.00;;;;;;4978823;28;20050;-80
2022/08/13 03:37:55;;;;;;;2.23;1.50;;;19.80;49.10;;;;;;4956050;28;20539;-80
2022/08/13 03:41:00;;;;;;;2.10;1.60;;;19.80;48.50;;;;;;4966514;28;20031;-80
2022/08/13 03:43:12;;;;;;;2.20;1.60;;;19.70;48.80;;;;;;4967913;28;20066;-80
2022/08/13 03:45:38;;;;;;;2.40;1.60;;;19.70;48.30;;;;;;4978305;28;20261;-80
2022/08/13 03:48:04;;;;;;;2.33;1.55;;;19.60;48.30;;;;;;4945889;28;20030;-80
2022/08/13 03:50:30;;;;;;;2.60;1.70;;;19.60;48.50;;;;;;4948638;28;20690;-80
2022/08/13 03:53:06;;;;;;;2.72;1.80;;;19.50;48.60;;;;;;4971014;28;20033;-80
2022/08/13 03:55:33;;;;;;;2.17;1.55;;;19.50;49.70;;;;;;4968503;28;20299;-80
2022/08/13 03:58:00;;;;;;;3.23;1.77;;;19.50;48.80;;;;;;4964604;28;20100;-80
2022/08/13 04:00:30;;;;;;;2.80;1.67;;;19.50;48.90;;;;;;4958440;28;20282;-80
2022/08/13 04:02:57;;;;;;;3.45;1.80;;;19.40;49.00;;;;;;4986063;28;20034;-79
2022/08/13 04:05:22;;;;;;;3.70;1.70;;;19.40;49.10;;;;;;4936676;28;20320;-79
2022/08/13 04:07:50;;;;;;;3.00;1.63;;;19.40;49.10;;;;;;4968908;28;20081;-79
2022/08/13 04:10:16;;;;;;;3.53;1.83;;;19.30;49.20;;;;;;4938088;28;20288;-79
2022/08/13 04:12:42;;;;;;;2.63;1.70;;;19.30;49.30;;;;;;4940539;28;20054;-79
2022/08/13 04:15:09;;;;;;;3.00;1.70;;;19.30;49.40;;;;;;4962201;28;20023;-79
2022/08/13 04:17:40;;;;;;;2.88;1.67;;;19.20;49.50;;;;;;4956780;28;20046;-79
2022/08/13 04:20:10;;;;;;;2.03;1.60;;;19.20;49.60;;;;;;4948487;28;20019;-79
2022/08/13 04:22:39;;;;;;;2.70;1.80;;;19.10;50.10;;;;;;4978327;28;20078;-80
2022/08/13 04:25:06;;;;;;;2.03;1.58;;;19.10;49.70;;;;;;4932509;28;20027;-79
2022/08/13 04:27:34;;;;;;;2.10;1.75;;;19.10;49.90;;;;;;4957265;28;20058;-79
2022/08/13 04:30:00;;;;;;;2.03;1.52;;;19.10;50.00;;;;;;4958746;28;20106;-79
2022/08/13 04:32:27;;;;;;;2.45;1.65;;;19.10;50.10;;;;;;4980057;28;20154;-79
2022/08/13 04:34:54;;;;;;;2.03;1.70;;;19.00;50.00;;;;;;4951211;28;20085;-80
2022/08/13 04:37:22;;;;;;;2.45;1.80;;;19.00;50.20;;;;;;4958578;28;20292;-79
2022/08/13 04:39:53;;;;;;;2.25;1.67;;;19.00;50.30;;;;;;4965232;28;20027;-79
2022/08/13 04:42:19;;;;;;;2.47;1.80;;;19.00;50.90;;;;;;4947739;28;20027;-79
2022/08/13 04:44:47;;;;;;;2.85;1.70;;;18.90;50.40;;;;;;4950067;28;20039;-79
2022/08/13 04:47:13;;;;;;;3.20;1.70;;;18.90;50.60;;;;;;4950265;28;20081;-79
2022/08/13 04:49:39;;;;;;;2.75;1.80;;;18.90;50.80;;;;;;4942034;28;20519;-79
2022/08/13 04:52:05;;;;;;;3.33;1.80;;;18.90;50.90;;;;;;4964619;28;20365;-79
2022/08/13 04:54:31;;;;;;;2.85;1.70;;;18.90;51.00;;;;;;4965324;28;20054;-80
2022/08/13 04:56:57;;;;;;;2.33;1.70;;;18.80;51.00;;;;;;4951041;28;21012;-79
2022/08/13 04:59:23;;;;;;;1.63;1.50;;;18.80;51.20;;;;;;4960632;28;20586;-79
2022/08/13 05:01:49;;;;;;;3.50;1.80;;;18.80;51.30;;;;;;4952839;28;20638;-79
2022/08/13 05:04:17;;;;;;;1.95;1.60;;;18.80;51.30;;;;;;4929804;28;20464;-79
2022/08/13 05:06:43;;;;;;;4.07;1.70;;;18.80;51.30;;;;;;4937736;28;20585;-79
2022/08/13 05:09:09;;;;;;;2.40;1.70;;;18.80;51.30;;;;;;4932494;28;20472;-79
2022/08/13 05:11:35;;;;;;;4.30;1.80;;;18.90;51.40;;;;;;4955966;28;20023;-79
2022/08/13 05:14:00;;;;;;;2.70;1.70;;;18.90;51.40;;;;;;4939688;28;20258;-79
2022/08/13 05:16:26;;;;;;;1.83;1.50;;;18.90;51.50;;;;;;4949674;28;20134;-79
2022/08/13 05:18:53;;;;;;;1.90;1.70;;;18.90;51.50;;;;;;4965265;28;20068;-79
2022/08/13 05:21:23;;;;;;;2.37;1.60;;;18.90;51.60;;;;;;4934729;28;20293;-79
2022/08/13 05:23:55;;;;;;;2.50;1.70;;;18.90;51.80;;;;;;4947159;28;20030;-80
2022/08/13 05:26:31;;;;;;;3.78;1.70;;;19.00;52.20;;;;;;4932368;28;20043;-79
2022/08/13 05:29:04;;;;;;;3.40;1.65;;;19.00;51.90;;;;;;4956088;28;20502;-79
2022/08/13 05:31:31;;;;;;;2.00;1.70;;;19.00;51.80;;;;;;4948001;28;20174;-80
2022/08/13 05:33:57;;;;;;;2.27;1.67;;;19.10;52.60;;;;;;4965160;28;20034;-79
2022/08/13 05:36:28;;;;;;;2.28;1.73;;;19.10;52.00;;;;;;4962459;28;20039;-79
2022/08/13 05:38:55;;;;;;;3.40;2.00;;;19.10;52.00;;;;;;4928479;28;20079;-79
2022/08/13 05:41:23;;;;;;;2.42;1.63;;;19.20;52.30;;;;;;4956610;28;20027;-79
2022/08/13 05:43:51;;;;;;;3.10;1.90;;;19.20;52.40;;;;;;4953763;28;20050;-79
2022/08/13 05:46:17;;;;;;;4.93;1.83;;;19.20;52.30;;;;;;4955471;28;20400;-79
2022/08/13 05:48:56;;;;;;;3.30;1.90;;;19.30;52.30;;;;;;4963684;28;20018;-80
2022/08/13 05:51:25;;;;;;;2.15;1.70;;;19.30;52.50;;;;;;4963205;28;20050;-80
2022/08/13 05:53:54;;;;;;;2.72;1.75;;;19.40;52.60;;;;;;4939020;28;20058;-79
2022/08/13 05:56:22;;;;;;;2.80;1.80;;;19.40;52.40;;;;;;4928702;28;20053;-79
2022/08/13 05:58:48;;;;;;;3.10;1.88;;;19.40;52.60;;;;;;4954650;28;20053;-79
2022/08/13 06:04:00;;;;;;;2.78;1.80;;;19.60;52.70;;;;;;4958172;28;20023;-79
2022/08/13 06:06:26;;;;;;;2.35;1.67;;;19.60;52.60;;;;;;4943092;28;20543;-79
2022/08/13 06:08:56;;;;;;;2.53;1.97;;;19.70;52.70;;;;;;4933594;28;20061;-80
2022/08/13 06:11:22;;;;;;;2.78;1.70;;;19.70;52.80;;;;;;4942406;28;20043;-79
2022/08/13 06:13:48;;;;;;;2.70;1.77;;;19.80;52.80;;;;;;4941178;28;20178;-79
2022/08/13 06:16:17;;;;;;;2.20;1.70;;;19.90;53.00;;;;;;4966972;28;20027;-79
2022/08/13 06:18:46;;;;;;;2.10;1.70;;;19.90;52.90;;;;;;4965773;28;20023;-80
2022/08/13 06:21:14;;;;;;;2.30;1.80;;;20.00;52.90;;;;;;4936508;28;20099;-79
2022/08/13 06:23:45;;;;;;;2.47;1.70;;;20.10;53.00;;;;;;4927583;28;20106;-80
2022/08/13 06:26:15;;;;;;;3.45;1.58;;;20.20;52.90;;;;;;4937364;28;20178;-79
2022/08/13 06:28:41;;;;;;;2.10;1.67;;;20.30;52.80;;;;;;4946655;28;20032;-79
2022/08/13 06:31:09;;;;;;;2.33;1.83;;;20.30;52.70;;;;;;4952625;28;20023;-79
2022/08/13 06:33:36;;;;;;;3.13;1.70;;;20.40;52.80;;;;;;4953241;28;20104;-79
2022/08/13 06:36:04;;;;;;;3.08;1.70;;;20.50;52.90;;;;;;4951279;28;20752;-79
2022/08/13 06:38:36;;;;;;;2.50;1.60;;;20.60;52.80;;;;;;4960210;28;20419;-79
2022/08/13 06:41:04;;;;;;;2.78;1.60;;;20.70;52.80;;;;;;4939176;28;20631;-79
2022/08/13 06:43:35;;;;;;;2.77;1.67;;;20.80;52.70;;;;;;4976359;28;20069;-80
2022/08/13 06:46:03;;;;;;;1.90;1.65;;;20.90;52.70;;;;;;4948145;28;20500;-79
2022/08/13 06:48:29;;;;;;;3.33;1.50;;;21.10;52.70;;;;;;4934313;28;20061;-79
2022/08/13 06:50:55;;;;;;;2.72;1.50;;;21.10;52.70;;;;;;4954307;28;20027;-80
2022/08/13 06:53:21;;;;;;;2.38;1.65;;;21.30;52.80;;;;;;4954081;28;20463;-80
2022/08/13 06:55:50;;;;;;;3.10;1.40;;;21.40;52.70;;;;;;4915728;28;20506;-79
2022/08/13 06:58:18;;;;;;;2.72;1.60;;;21.50;52.70;;;;;;4928649;28;20658;-80
2022/08/13 07:00:44;;;;;;;2.22;1.50;;;21.70;52.70;;;;;;4960832;28;20023;-80
2022/08/13 07:03:10;;;;;;;2.65;1.55;;;21.80;52.70;;;;;;4951469;28;20654;-79
2022/08/13 07:05:41;;;;;;;2.95;1.42;;;21.90;52.50;;;;;;4957967;28;20019;-80
2022/08/13 07:08:11;;;;;;;2.30;1.47;;;22.10;52.60;;;;;;4945075;28;20058;-80
2022/08/13 07:11:21;;;;;;;2.05;1.42;;;22.20;52.20;;;;;;4956080;28;20055;-79
2022/08/13 07:13:27;;;;;;;2.22;1.45;;;22.40;52.20;;;;;;4950198;28;20122;-80
2022/08/13 07:15:53;;;;;;;1.60;1.40;;;22.60;52.00;;;;;;4939605;28;20023;-80
2022/08/13 07:18:19;;;;;;;3.20;1.60;;;22.70;51.90;;;;;;4951994;28;20050;-80
2022/08/13 07:20:45;;;;;;;2.75;1.50;;;22.80;51.70;;;;;;4952079;28;20059;-80
2022/08/13 07:23:11;;;;;;;2.67;1.40;;;23.00;51.60;;;;;;4957525;28;20049;-80
2022/08/13 07:25:39;;;;;;;1.80;1.42;;;23.20;51.40;;;;;;4960781;28;20113;-80
2022/08/13 07:28:05;;;;;;;2.40;1.58;;;23.30;51.30;;;;;;4919011;28;20610;-79
2022/08/13 07:30:31;;;;;;;2.20;1.42;;;23.50;51.30;;;;;;4975802;28;20058;-79
2022/08/13 07:32:57;;;;;;;2.60;1.57;;;23.70;51.10;;;;;;4939294;28;20026;-79
2022/08/13 07:35:23;;;;;;;4.22;1.70;;;23.90;50.80;;;;;;4950889;28;20050;-80
2022/08/13 07:37:52;;;;;;;1.80;1.60;;;24.10;51.30;;;;;;4941231;28;20034;-80
2022/08/13 07:40:19;;;;;;;2.10;1.50;;;24.30;50.40;;;;;;4955244;28;20385;-80
2022/08/13 07:42:48;;;;;;;1.90;1.70;;;24.50;50.10;;;;;;4938455;28;20042;-79
2022/08/13 07:45:23;;;;;;;2.60;1.40;;;24.70;50.00;;;;;;4929637;28;20023;-80
2022/08/13 07:47:50;;;;;;;2.58;1.38;;;24.80;49.30;;;;;;4956205;28;20026;-79
2022/08/13 07:50:17;;;;;;;1.83;1.60;;;25.00;49.30;;;;;;4932710;28;20023;-80
2022/08/13 07:52:43;;;;;;;2.10;1.45;;;25.20;49.20;;;;;;4923962;28;20027;-79
2022/08/13 07:55:09;;;;;;;1.73;1.48;;;25.40;49.30;;;;;;4957493;28;20353;-80
2022/08/13 07:57:41;;;;;;;1.50;1.30;;;25.60;49.20;;;;;;4931439;28;20049;-79
2022/08/13 08:00:21;;;;;;;1.90;1.50;;;25.80;49.40;;;;;;4946193;28;20058;-80
2022/08/13 08:02:54;;;;;;;1.63;1.40;;;26.00;49.20;;;;;;4951662;28;20030;-80
2022/08/13 08:05:22;;;;;;;2.07;1.40;;;26.30;49.20;;;;;;4928290;28;20090;-81
2022/08/13 08:07:50;;;;;;;3.25;1.40;;;26.60;48.90;;;;;;4955656;28;20062;-78
2022/08/13 08:10:18;;;;;;;1.50;1.40;;;27.00;48.60;;;;;;4959629;28;20033;-79
2022/08/13 08:12:44;;;;;;;1.90;1.40;;;27.30;48.70;;;;;;4945321;28;20047;-79
2022/08/13 08:15:11;;;;;;;2.25;1.30;;;27.70;48.90;;;;;;4950416;28;20014;-79
2022/08/13 08:17:37;;;;;;;1.50;1.40;;;28.10;48.70;;;;;;4954161;28;20106;-78
2022/08/13 08:20:04;;;;;;;3.60;1.38;;;28.60;48.40;;;;;;4962696;28;20035;-79
2022/08/13 08:22:30;;;;;;;1.50;1.40;;;29.00;48.10;;;;;;4959254;28;20105;-79
2022/08/13 08:24:57;;;;;;;1.60;1.50;;;29.40;48.00;;;;;;4971444;28;20082;-79
2022/08/13 08:27:25;;;;;;;1.55;1.45;;;29.90;47.80;;;;;;4929064;28;20031;-79
2022/08/13 08:29:52;;;;;;;1.77;1.30;;;30.30;48.40;;;;;;4939416;28;20050;-79
2022/08/13 08:32:19;;;;;;;2.05;1.45;;;30.80;47.60;;;;;;4958717;28;20043;-79
2022/08/13 08:34:47;;;;;;;2.08;1.60;;;31.40;47.30;;;;;;4982295;28;20042;-79
2022/08/13 08:42:35;;;;;;;1.70;1.60;;;31.90;47.10;;;;;;4947563;28;20058;-79
2022/08/13 08:42:49;;;;;;;1.87;1.60;;;33.20;46.20;;;;;;4934337;28;20524;-79
2022/08/13 08:45:18;;;;;;;1.60;1.40;;;33.80;44.40;;;;;;4969956;28;20054;-79
2022/08/13 08:47:45;;;;;;;1.92;1.60;;;34.30;43.60;;;;;;4941517;28;20222;-79
2022/08/13 08:50:11;;;;;;;1.77;1.60;;;34.90;42.70;;;;;;4962515;28;20019;-79
2022/08/13 08:55:27;;;;;;;2.20;1.50;;;35.90;41.00;;;;;;4958469;28;20070;-80
2022/08/13 08:57:53;;;;;;;1.73;1.60;;;36.30;39.80;;;;;;4939056;28;20046;-79
2022/08/13 09:00:23;;;;;;;2.22;1.73;;;36.80;39.30;;;;;;4931862;28;20045;-80
2022/08/13 09:02:50;;;;;;;1.63;1.52;;;37.20;38.40;;;;;;4957289;28;20181;-80
2022/08/13 09:05:21;;;;;;;2.08;1.63;;;37.60;37.50;;;;;;4969545;28;20055;-80
2022/08/13 09:07:47;;;;;;;1.87;1.50;;;37.90;36.60;;;;;;4940911;28;20128;-79
2022/08/13 09:10:16;;;;;;;1.83;1.73;;;38.30;36.80;;;;;;4948748;28;20041;-80
2022/08/13 09:12:44;;;;;;;2.55;2.35;;;38.70;35.20;;;;;;4961351;28;20725;-80
2022/08/13 09:15:11;;;;;;;2.17;2.03;;;39.00;34.70;;;;;;4919920;28;20427;-81
2022/08/13 09:17:38;;;;;;;4.32;2.00;;;39.30;34.00;;;;;;4940384;28;20045;-81
2022/08/13 09:20:12;;;;;;;2.00;1.90;;;39.60;33.30;;;;;;4942653;28;20609;-82
2022/08/13 09:22:40;;;;;;;2.13;2.03;;;39.80;32.30;;;;;;4940050;28;20537;-81
2022/08/13 09:25:07;;;;;;;2.22;2.13;;;40.00;31.60;;;;;;4944663;28;20201;-81
2022/08/13 09:27:34;;;;;;;2.50;2.30;;;40.20;31.20;;;;;;4954456;28;20051;-81
2022/08/13 09:30:01;;;;;;;2.67;2.47;;;40.40;30.90;;;;;;4923386;28;20034;-80
2022/08/13 09:32:29;;;;;;;2.37;2.00;;;40.60;30.30;;;;;;4942783;28;20034;-80
2022/08/13 09:34:55;;;;;;;2.35;2.15;;;40.70;29.80;;;;;;4956514;28;20053;-81
2022/08/13 09:37:23;;;;;;;2.55;2.40;;;40.90;29.60;;;;;;4966624;28;20023;-80
2022/08/13 09:39:58;;;;;;;2.72;2.53;;;41.10;29.20;;;;;;4963169;28;20034;-80
2022/08/13 09:42:27;;;;;;;2.63;2.50;;;41.30;29.10;;;;;;4949204;28;20019;-81
2022/08/13 09:44:58;;;;;;;2.53;2.40;;;41.50;28.70;;;;;;4930241;28;20228;-80
2022/08/13 09:47:25;;;;;;;3.03;2.83;;;41.70;28.00;;;;;;4933597;28;20058;-80
2022/08/13 09:49:51;;;;;;;2.95;2.75;;;41.90;28.30;;;;;;4946394;28;20030;-81
2022/08/13 09:52:19;;;;;;;2.47;2.38;;;42.00;27.90;;;;;;4937190;28;20158;-80
2022/08/13 09:54:44;;;;;;;2.95;2.75;;;42.20;27.60;;;;;;4964843;28;20023;-81
2022/08/13 09:57:10;;;;;;;3.30;3.10;;;42.40;27.30;;;;;;4936874;28;20039;-80
2022/08/13 09:59:36;;;;;;;3.42;2.97;;;42.50;26.90;;;;;;4930915;28;20057;-80
2022/08/13 10:02:12;;;;;;;3.17;2.97;;;42.70;26.60;;;;;;4936397;28;20038;-80
2022/08/13 10:04:39;;;;;;;2.23;2.13;;;42.90;25.70;;;;;;4957496;28;20015;-81
2022/08/13 10:07:07;;;;;;;2.80;2.60;;;43.00;25.80;;;;;;4960757;28;20022;-81
2022/08/13 10:09:34;;;;;;;3.58;2.70;;;43.20;25.60;;;;;;4961439;28;20059;-79
2022/08/13 10:12:05;;;;;;;3.15;2.92;;;43.30;25.00;;;;;;4942246;28;20027;-80
2022/08/13 10:14:32;;;;;;;2.38;2.28;;;43.40;24.30;;;;;;4932384;28;20030;-80
2022/08/13 10:16:58;;;;;;;2.93;2.73;;;43.40;24.90;;;;;;4931590;28;20018;-80
2022/08/13 10:19:24;;;;;;;2.60;2.40;;;43.50;24.70;;;;;;4932278;28;20018;-80
2022/08/13 10:21:51;;;;;;;2.95;2.75;;;43.60;24.40;;;;;;4941754;28;20280;-81
2022/08/13 10:24:17;;;;;;;3.17;2.97;;;43.70;24.20;;;;;;4939915;28;20034;-80
2022/08/13 10:26:43;;;;;;;3.05;2.85;;;43.80;24.00;;;;;;4961689;28;20341;-81
2022/08/13 10:29:10;;;;;;;3.17;2.97;;;43.90;24.00;;;;;;4951833;28;20027;-80
2022/08/13 10:31:36;;;;;;;3.35;3.15;;;44.00;23.20;;;;;;4949995;28;20027;-80
2022/08/13 10:34:03;;;;;;;2.90;2.70;;;44.10;22.80;;;;;;4939435;28;20086;-81
2022/08/13 10:36:30;;;;;;;3.13;2.92;;;44.00;22.70;;;;;;4964904;28;20019;-80
2022/08/13 10:38:57;;;;;;;2.60;2.47;;;44.00;22.70;;;;;;4961667;28;20372;-80
2022/08/13 10:41:24;;;;;;;3.00;2.80;;;44.20;23.50;;;;;;4960191;28;20411;-80
2022/08/13 10:43:50;;;;;;;2.70;2.60;;;44.30;22.80;;;;;;4949497;28;20032;-81
2022/08/13 10:46:17;;;;;;;2.47;2.38;;;44.50;22.60;;;;;;4949114;28;20050;-80
2022/08/13 10:48:55;;;;;;;3.15;2.95;;;44.50;22.30;;;;;;4922185;28;20484;-80
2022/08/13 10:51:22;;;;;;;3.23;3.03;;;44.70;21.70;;;;;;4978972;28;20491;-80
2022/08/13 10:54:00;;;;;;;3.35;3.15;;;44.90;22.30;;;;;;4952803;28;20030;-80
2022/08/13 10:56:28;;;;;;;3.33;3.13;;;45.00;22.10;;;;;;4959046;28;20038;-80
2022/08/13 10:58:56;;;;;;;2.47;2.28;;;45.10;21.80;;;;;;4951247;28;20039;-80
2022/08/13 11:01:24;;;;;;;2.95;2.75;;;45.30;21.90;;;;;;4923706;28;22226;-80
2022/08/13 11:03:52;;;;;;;3.53;3.33;;;45.30;21.50;;;;;;4950198;28;20027;-80
2022/08/13 11:06:18;;;;;;;3.40;3.10;;;45.30;21.40;;;;;;4937797;28;20063;-79
2022/08/13 11:08:44;;;;;;;3.88;3.63;;;45.50;21.40;;;;;;4935858;28;20031;-80
2022/08/13 11:11:11;;;;;;;3.58;3.38;;;45.50;21.20;;;;;;4961535;28;20027;-79
2022/08/13 11:13:37;;;;;;;3.07;2.87;;;45.60;21.00;;;;;;4949268;28;20094;-80
2022/08/13 11:18:49;;;;;;;2.90;2.72;;;45.70;20.70;;;;;;4936790;28;20034;-80
2022/08/13 11:21:14;;;;;;;2.97;2.77;;;45.70;20.70;;;;;;4917462;28;20030;-80
2022/08/13 11:23:40;;;;;;;3.42;3.20;;;45.80;20.70;;;;;;4950386;28;20030;-80
2022/08/13 11:26:06;;;;;;;3.27;3.07;;;45.90;20.60;;;;;;4960054;28;20046;-80
2022/08/13 11:28:31;;;;;;;2.58;2.40;;;46.10;20.60;;;;;;4941487;28;20240;-81
2022/08/13 11:30:57;;;;;;;3.07;2.87;;;46.30;20.50;;;;;;4951242;28;20043;-80
2022/08/13 11:33:25;;;;;;;2.95;2.75;;;46.40;20.30;;;;;;4942767;28;20027;-81
2022/08/13 11:35:54;;;;;;;3.30;3.10;;;46.50;20.00;;;;;;4935286;28;20031;-81
2022/08/13 11:38:21;;;;;;;2.90;2.70;;;46.60;20.10;;;;;;4972951;28;20034;-79
2022/08/13 11:40:49;;;;;;;3.65;3.35;;;46.60;20.40;;;;;;4928708;28;20034;-80
2022/08/13 11:43:15;;;;;;;3.53;3.33;;;46.70;19.70;;;;;;4974397;28;20109;-80
2022/08/13 11:45:41;;;;;;;3.60;3.40;;;46.70;19.70;;;;;;4959355;28;20023;-79
2022/08/13 11:48:07;;;;;;;3.22;3.03;;;46.80;20.10;;;;;;4959864;28;20089;-79
2022/08/13 11:50:34;;;;;;;3.55;3.35;;;46.80;19.30;;;;;;4932984;28;20161;-79
2022/08/13 11:53:00;;;;;;;3.63;3.42;;;46.80;19.30;;;;;;4967792;28;20283;-79
2022/08/13 11:55:25;;;;;;;3.73;3.43;;;46.80;19.10;;;;;;4960132;28;20031;-79
2022/08/13 11:58:02;;;;;;;3.08;2.88;;;46.80;18.90;;;;;;4969211;28;20038;-79
2022/08/13 12:00:29;;;;;;;2.63;2.43;;;46.80;18.60;;;;;;4941313;28;20050;-79
2022/08/13 12:02:54;;;;;;;2.90;2.70;;;46.80;19.00;;;;;;4959629;28;20518;-79
2022/08/13 12:05:20;;;;;;;3.17;2.97;;;46.80;18.90;;;;;;4943423;28;20232;-80
2022/08/13 12:07:46;;;;;;;3.25;3.05;;;46.80;18.80;;;;;;4942905;28;20507;-80
2022/08/13 12:10:13;;;;;;;2.60;2.40;;;46.80;18.70;;;;;;4937939;28;20027;-80
2022/08/13 12:12:39;;;;;;;3.17;2.97;;;46.80;18.50;;;;;;4935301;28;20038;-81
2022/08/13 12:15:05;;;;;;;2.85;2.65;;;46.70;18.40;;;;;;4948837;28;20244;-82
2022/08/13 12:17:31;;;;;;;2.50;2.33;;;46.60;18.20;;;;;;4970886;28;20852;-81
2022/08/13 12:19:57;;;;;;;2.27;2.17;;;46.50;18.10;;;;;;4906446;28;20976;-80
2022/08/13 12:22:23;;;;;;;3.00;2.80;;;46.30;18.20;;;;;;4952663;28;20019;-79
2022/08/13 12:24:48;;;;;;;2.80;2.60;;;46.20;18.40;;;;;;4941493;28;20027;-80
2022/08/13 12:27:14;;;;;;;2.80;2.60;;;46.10;18.30;;;;;;4933683;28;20271;-81
2022/08/13 12:29:40;;;;;;;2.63;2.50;;;46.00;18.40;;;;;;4931760;28;20027;-80
2022/08/13 12:32:06;;;;;;;2.90;2.57;;;45.90;18.40;;;;;;4952175;28;20038;-79
2022/08/13 12:34:32;;;;;;;2.78;2.58;;;46.00;18.50;;;;;;4959446;28;20090;-80
2022/08/13 12:36:58;;;;;;;2.27;2.17;;;46.00;18.50;;;;;;4937383;28;20043;-79
2022/08/13 12:39:23;;;;;;;2.20;2.10;;;45.90;18.40;;;;;;4951512;28;20062;-79
2022/08/13 12:41:49;;;;;;;2.53;2.43;;;45.80;18.30;;;;;;4936186;28;20031;-79
2022/08/13 12:44:15;;;;;;;2.90;2.70;;;45.90;18.40;;;;;;4952896;28;20018;-80
2022/08/13 12:46:40;;;;;;;3.40;3.20;;;46.00;18.20;;;;;;4975260;28;20038;-81
2022/08/13 12:49:07;;;;;;;2.73;2.57;;;46.00;18.80;;;;;;4943767;28;20038;-80
2022/08/13 12:51:33;;;;;;;2.92;2.60;;;46.10;18.10;;;;;;4940533;28;20116;-80
2022/08/13 12:53:59;;;;;;;2.75;2.58;;;46.10;17.90;;;;;;4945028;28;20357;-81
2022/08/13 12:56:24;;;;;;;2.77;2.60;;;46.20;17.90;;;;;;4963567;28;20156;-80
2022/08/13 12:58:50;;;;;;;2.80;2.60;;;46.30;17.90;;;;;;4949900;28;20077;-78
2022/08/13 13:01:16;;;;;;;2.20;2.10;;;46.40;18.00;;;;;;4955868;28;20034;-80
2022/08/13 13:03:41;;;;;;;2.78;2.58;;;46.40;17.90;;;;;;4955188;28;20487;-81
2022/08/13 13:06:07;;;;;;;5.40;2.20;;;46.50;17.90;;;;;;4928579;28;20167;-80
2022/08/13 13:08:33;;;;;;;2.67;2.47;;;46.50;18.00;;;;;;4959770;28;20439;-80
2022/08/13 13:11:02;;;;;;;2.38;2.17;;;46.50;17.80;;;;;;4948223;28;20499;-81